Time;durP1;ratioP1;P1;durP2;ratioP2;P2;SDS_P1;SDS_P2;PMS_P1;PMS_P2;Temp;Humidity;BMP_temperature;BMP_pressure;BME280_temperature;BME280_humidity;BME280_pressure;Samples;Min_cycle;Max_cycle;Signal;HPM_P1;HPM_P2
2023/06/11 00:02:06;;;;;;;13.93;7.70;;;19.40;99.90;;;;;;4975449;28;20501;-77
2023/06/11 00:04:34;;;;;;;13.57;7.13;;;19.50;99.90;;;;;;4989118;28;20428;-76
2023/06/11 00:07:02;;;;;;;13.37;7.93;;;19.60;99.90;;;;;;4975570;28;20465;-76
2023/06/11 00:09:28;;;;;;;13.20;7.45;;;19.50;99.90;;;;;;4991962;28;20426;-76
2023/06/11 00:11:54;;;;;;;15.10;7.82;;;;;;;;;;4991803;28;20910;-76
2023/06/11 00:14:21;;;;;;;14.52;7.68;;;19.20;99.90;;;;;;4987679;28;20431;-77
2023/06/11 00:16:48;;;;;;;12.68;7.50;;;19.40;99.90;;;;;;4993529;28;20438;-77
2023/06/11 00:19:14;;;;;;;12.87;7.60;;;19.50;99.90;;;;;;4995526;28;20488;-75
2023/06/11 00:21:43;;;;;;;13.57;8.20;;;19.20;99.90;;;;;;4991620;28;20418;-75
2023/06/11 00:24:14;;;;;;;13.17;7.97;;;19.10;99.90;;;;;;4978587;28;22302;-76
2023/06/11 00:26:40;;;;;;;17.40;8.70;;;18.80;99.90;;;;;;4975181;28;20422;-75
2023/06/11 00:29:07;;;;;;;17.63;8.97;;;18.80;99.90;;;;;;4993096;28;20982;-75
2023/06/11 00:31:33;;;;;;;13.90;7.68;;;18.80;99.90;;;;;;4976035;28;20925;-76
2023/06/11 00:34:02;;;;;;;12.82;8.30;;;18.90;99.90;;;;;;4989517;28;20955;-76
2023/06/11 00:36:29;;;;;;;14.03;8.63;;;;;;;;;;4975710;28;20430;-76
2023/06/11 00:38:55;;;;;;;16.42;8.13;;;;;;;;;;4991528;28;20960;-75
2023/06/11 00:41:24;;;;;;;17.80;8.82;;;18.70;99.90;;;;;;4959008;28;20422;-76
2023/06/11 00:43:54;;;;;;;12.90;8.10;;;18.70;99.90;;;;;;4989797;28;20451;-76
2023/06/11 00:46:21;;;;;;;11.52;7.78;;;18.90;99.90;;;;;;4994812;28;20430;-76
2023/06/11 00:48:48;;;;;;;15.23;8.38;;;18.80;99.90;;;;;;4991520;28;20441;-76
2023/06/11 00:51:17;;;;;;;12.50;8.02;;;18.70;99.90;;;;;;4991269;28;20476;-76
2023/06/11 00:53:42;;;;;;;14.00;8.30;;;18.80;99.90;;;;;;4990771;28;20433;-76
2023/06/11 00:56:08;;;;;;;12.77;8.23;;;18.80;99.90;;;;;;4972196;28;20793;-76
2023/06/11 00:58:34;;;;;;;14.15;8.38;;;18.90;99.90;;;;;;4986633;28;20937;-76
2023/06/11 01:01:05;;;;;;;15.38;8.10;;;18.80;99.90;;;;;;4997492;28;20425;-76
2023/06/11 01:03:33;;;;;;;11.13;8.73;;;;;;;;;;5007182;28;20417;-75
2023/06/11 01:06:01;;;;;;;12.45;8.05;;;;;;;;;;4998451;28;20426;-75
2023/06/11 01:08:29;;;;;;;12.85;8.50;;;18.80;99.90;;;;;;4991254;28;20418;-75
2023/06/11 01:10:59;;;;;;;13.57;8.55;;;18.80;99.90;;;;;;4981144;28;20437;-76
2023/06/11 01:13:26;;;;;;;11.25;8.40;;;18.60;99.90;;;;;;4987182;28;20435;-76
2023/06/11 01:16:04;;;;;;;13.75;8.20;;;18.60;99.90;;;;;;4990165;28;20426;-76
2023/06/11 01:18:39;;;;;;;11.73;8.10;;;18.80;99.90;;;;;;4974993;28;20501;-75
2023/06/11 01:21:13;;;;;;;13.55;8.35;;;18.60;99.90;;;;;;4993792;28;20418;-76
2023/06/11 01:23:43;;;;;;;12.32;8.45;;;;;;;;;;4991198;28;20945;-76
2023/06/11 01:26:42;;;;;;;18.27;9.13;;;19.00;99.90;;;;;;4992419;28;20441;-76
2023/06/11 01:29:09;;;;;;;13.15;8.18;;;18.80;99.90;;;;;;4989081;28;20422;-76
2023/06/11 01:31:40;;;;;;;12.18;8.43;;;18.80;99.90;;;;;;4972209;28;20469;-76
2023/06/11 01:34:06;;;;;;;12.82;8.10;;;;;;;;;;4990961;28;20429;-76
2023/06/11 01:36:36;;;;;;;13.23;8.20;;;18.70;99.90;;;;;;4993921;28;20426;-75
2023/06/11 01:39:05;;;;;;;10.50;8.33;;;18.60;99.90;;;;;;4987543;28;20465;-75
2023/06/11 01:41:31;;;;;;;12.13;8.55;;;18.70;99.90;;;;;;4978646;28;20458;-76
2023/06/11 01:43:56;;;;;;;13.93;8.73;;;18.80;99.90;;;;;;4974350;28;20504;-76
2023/06/11 01:46:22;;;;;;;12.38;8.20;;;18.70;99.90;;;;;;4975321;28;20476;-76
2023/06/11 01:48:48;;;;;;;12.77;8.35;;;;;;;;;;4990720;28;20428;-76
2023/06/11 01:51:14;;;;;;;11.02;8.68;;;18.70;99.90;;;;;;4975313;28;20521;-76
2023/06/11 01:53:43;;;;;;;11.25;8.68;;;18.70;99.90;;;;;;4988987;28;20505;-75
2023/06/11 01:56:09;;;;;;;12.40;8.53;;;18.40;99.90;;;;;;4990999;28;20516;-76
2023/06/11 01:58:37;;;;;;;10.48;8.48;;;18.30;99.90;;;;;;4990968;28;20430;-76
2023/06/11 02:01:03;;;;;;;13.00;8.60;;;;;;;;;;4956892;28;20608;-76
2023/06/11 02:03:29;;;;;;;12.40;8.77;;;18.10;99.90;;;;;;5018588;28;20484;-76
2023/06/11 02:05:55;;;;;;;13.70;8.90;;;18.20;99.90;;;;;;4972727;28;20422;-76
2023/06/11 02:08:21;;;;;;;12.05;8.77;;;18.40;99.90;;;;;;5002827;28;20423;-75
2023/06/11 02:10:47;;;;;;;11.65;9.60;;;;;;;;;;4965448;28;20891;-76
2023/06/11 02:13:13;;;;;;;11.60;8.77;;;18.30;99.90;;;;;;4986731;28;20489;-75
2023/06/11 02:15:39;;;;;;;11.35;8.77;;;;;;;;;;4989311;28;20926;-76
2023/06/11 02:18:05;;;;;;;10.68;8.93;;;17.90;99.90;;;;;;4974003;28;20910;-76
2023/06/11 02:20:31;;;;;;;11.63;8.80;;;;;;;;;;4993631;28;20942;-76
2023/06/11 02:22:57;;;;;;;12.98;8.77;;;18.00;99.90;;;;;;4972616;28;20518;-75
2023/06/11 02:25:23;;;;;;;11.27;8.83;;;18.00;99.90;;;;;;4993868;28;20612;-75
2023/06/11 02:27:49;;;;;;;11.85;9.05;;;17.70;99.90;;;;;;4995329;28;20426;-75
2023/06/11 02:30:15;;;;;;;11.27;8.40;;;17.80;99.90;;;;;;4995576;28;20426;-76
2023/06/11 02:32:41;;;;;;;13.40;8.80;;;18.00;99.90;;;;;;4992679;28;20433;-75
2023/06/11 02:35:07;;;;;;;12.65;9.52;;;17.80;99.90;;;;;;4993903;28;20414;-75
2023/06/11 02:37:33;;;;;;;12.20;9.03;;;;;;;;;;4977041;28;20434;-75
2023/06/11 02:39:59;;;;;;;13.47;9.00;;;17.70;99.90;;;;;;4993153;28;20437;-75
2023/06/11 02:42:24;;;;;;;12.77;9.97;;;17.60;99.90;;;;;;4980943;28;20500;-75
2023/06/11 02:44:50;;;;;;;12.20;9.43;;;;;;;;;;4988018;28;20520;-75
2023/06/11 02:47:16;;;;;;;10.75;9.10;;;17.60;99.90;;;;;;4992841;28;20430;-75
2023/06/11 02:49:42;;;;;;;10.82;8.80;;;;;;;;;;4992163;28;20410;-75
2023/06/11 02:52:08;;;;;;;12.18;9.45;;;17.60;99.90;;;;;;4991029;28;20434;-75
2023/06/11 02:54:34;;;;;;;12.88;9.80;;;17.70;99.90;;;;;;4992265;28;20429;-75
2023/06/11 02:57:00;;;;;;;12.30;9.53;;;;;;;;;;4993493;28;20457;-75
2023/06/11 02:59:26;;;;;;;10.52;9.43;;;;;;;;;;4975030;28;20466;-75
2023/06/11 03:01:51;;;;;;;10.50;9.40;;;17.50;99.90;;;;;;4999723;28;20426;-75
2023/06/11 03:04:17;;;;;;;12.07;10.00;;;17.60;99.90;;;;;;4978357;28;20461;-75
2023/06/11 03:06:43;;;;;;;12.30;9.37;;;17.50;99.90;;;;;;4990273;28;20949;-75
2023/06/11 03:09:08;;;;;;;11.05;9.85;;;17.80;99.90;;;;;;4992028;28;20510;-75
2023/06/11 03:11:34;;;;;;;11.80;9.40;;;17.60;99.90;;;;;;4992845;28;20414;-75
2023/06/11 03:14:00;;;;;;;13.43;9.57;;;17.70;99.90;;;;;;4992205;28;20470;-76
2023/06/11 03:16:26;;;;;;;10.13;9.05;;;17.60;99.90;;;;;;4993052;28;20432;-75
2023/06/11 03:18:51;;;;;;;11.00;9.82;;;17.60;99.90;;;;;;4978188;28;20431;-75
2023/06/11 03:21:17;;;;;;;13.10;9.52;;;17.80;99.90;;;;;;4976670;28;20769;-75
2023/06/11 03:23:43;;;;;;;13.50;10.00;;;17.50;99.90;;;;;;4996461;28;20422;-74
2023/06/11 03:26:09;;;;;;;12.00;10.07;;;;;;;;;;4976623;28;20849;-75
2023/06/11 03:28:35;;;;;;;11.15;9.98;;;17.70;99.90;;;;;;4974129;28;20443;-75
2023/06/11 03:31:01;;;;;;;12.37;10.37;;;17.60;99.90;;;;;;4993190;28;20434;-75
2023/06/11 03:33:26;;;;;;;12.17;10.27;;;17.50;99.90;;;;;;4986236;28;20420;-76
2023/06/11 03:35:52;;;;;;;12.02;9.98;;;17.70;99.90;;;;;;4993485;28;20438;-76
2023/06/11 03:38:17;;;;;;;11.63;10.15;;;17.50;99.90;;;;;;4992836;28;20421;-76
2023/06/11 03:40:43;;;;;;;11.57;10.13;;;17.50;99.90;;;;;;4959791;28;20967;-76
2023/06/11 03:43:09;;;;;;;12.00;9.95;;;17.30;99.90;;;;;;4974313;28;20948;-75
2023/06/11 03:45:34;;;;;;;13.15;10.68;;;17.50;99.90;;;;;;4991567;28;20429;-75
2023/06/11 03:48:02;;;;;;;12.60;10.20;;;;;;;;;;4988742;28;20521;-75
2023/06/11 03:50:28;;;;;;;12.63;10.10;;;17.30;99.90;;;;;;4958680;28;20432;-75
2023/06/11 03:52:54;;;;;;;11.63;10.33;;;;;;;;;;4982108;28;20942;-75
2023/06/11 03:55:20;;;;;;;12.60;10.65;;;17.40;99.90;;;;;;4995240;28;20426;-75
2023/06/11 03:57:46;;;;;;;13.55;10.23;;;;;;;;;;4984117;28;20430;-75
2023/06/11 04:00:13;;;;;;;12.38;9.90;;;17.30;99.90;;;;;;4984936;28;20438;-75
2023/06/11 04:02:38;;;;;;;12.07;10.35;;;17.50;99.90;;;;;;4973245;28;20419;-76
2023/06/11 04:05:04;;;;;;;13.60;10.75;;;17.20;99.90;;;;;;4977531;28;20417;-76
2023/06/11 04:07:30;;;;;;;13.30;10.82;;;;;;;;;;4990666;28;20422;-76
2023/06/11 04:09:56;;;;;;;11.50;9.73;;;17.40;99.90;;;;;;4989686;28;20457;-76
2023/06/11 04:12:22;;;;;;;12.33;10.40;;;17.50;99.90;;;;;;4991988;28;20833;-76
2023/06/11 04:14:47;;;;;;;11.57;10.37;;;17.10;99.90;;;;;;4991836;28;20422;-75
2023/06/11 04:17:13;;;;;;;12.23;10.60;;;17.40;99.90;;;;;;4962156;28;20910;-75
2023/06/11 04:19:39;;;;;;;11.50;10.10;;;;;;;;;;4991958;28;20430;-76
2023/06/11 04:22:05;;;;;;;12.60;11.20;;;17.40;99.90;;;;;;4975745;28;20514;-75
2023/06/11 04:24:31;;;;;;;13.38;10.48;;;;;;;;;;4988704;28;20858;-76
2023/06/11 04:26:58;;;;;;;12.70;10.45;;;;;;;;;;4974528;28;20922;-76
2023/06/11 04:29:29;;;;;;;12.23;10.93;;;17.50;99.90;;;;;;4993258;28;20759;-75
2023/06/11 04:31:56;;;;;;;12.07;10.77;;;;;;;;;;5003882;28;20507;-75
2023/06/11 04:34:28;;;;;;;14.57;11.27;;;17.40;99.90;;;;;;4990992;28;20438;-75
2023/06/11 04:36:58;;;;;;;12.68;10.70;;;17.60;99.90;;;;;;4969181;28;20434;-75
2023/06/11 04:39:24;;;;;;;12.65;10.77;;;17.60;99.90;;;;;;4990496;28;20434;-75
2023/06/11 04:41:51;;;;;;;12.75;11.27;;;17.70;99.90;;;;;;4990030;28;20425;-75
2023/06/11 04:44:20;;;;;;;12.52;10.98;;;17.70;99.90;;;;;;4991134;28;20500;-75
2023/06/11 04:46:47;;;;;;;13.23;11.25;;;17.80;99.90;;;;;;4982663;28;20433;-75
2023/06/11 04:49:20;;;;;;;12.80;11.50;;;17.80;99.90;;;;;;4999598;28;20484;-75
2023/06/11 04:51:48;;;;;;;12.20;10.93;;;;;;;;;;4995279;28;20491;-75
2023/06/11 04:54:14;;;;;;;15.38;11.30;;;18.20;99.90;;;;;;4997996;28;20820;-75
2023/06/11 04:56:41;;;;;;;13.77;11.13;;;18.10;99.90;;;;;;5001762;28;20428;-76
2023/06/11 04:59:07;;;;;;;11.93;10.73;;;18.10;99.90;;;;;;5010951;28;20429;-76
2023/06/11 05:01:37;;;;;;;12.25;11.05;;;18.10;99.90;;;;;;4992683;28;20446;-75
2023/06/11 05:04:04;;;;;;;14.17;11.57;;;18.00;99.90;;;;;;4981752;28;20510;-76
2023/06/11 05:06:30;;;;;;;14.60;11.30;;;18.00;99.90;;;;;;4992187;28;20426;-75
2023/06/11 05:08:56;;;;;;;15.07;11.68;;;18.10;99.90;;;;;;4984413;28;20844;-75
2023/06/11 05:11:22;;;;;;;12.63;11.40;;;;;;;;;;4980123;28;20455;-75
2023/06/11 05:13:48;;;;;;;13.35;11.10;;;18.40;99.90;;;;;;4975695;28;20945;-75
2023/06/11 05:16:14;;;;;;;12.38;11.07;;;;;;;;;;4994313;28;20428;-76
2023/06/11 05:18:40;;;;;;;12.70;11.35;;;;;;;;;;4996666;28;20487;-75
2023/06/11 05:21:06;;;;;;;14.27;11.50;;;;;;;;;;4991597;28;20425;-75
2023/06/11 05:23:33;;;;;;;13.15;11.38;;;18.60;99.90;;;;;;4990944;28;20497;-75
2023/06/11 05:26:01;;;;;;;13.38;11.45;;;18.70;99.90;;;;;;4990841;28;20487;-75
2023/06/11 05:28:27;;;;;;;12.25;10.93;;;18.90;99.90;;;;;;5003950;28;20468;-76
2023/06/11 05:30:53;;;;;;;13.50;11.40;;;18.80;99.90;;;;;;4998850;28;20593;-75
2023/06/11 05:33:20;;;;;;;13.05;11.38;;;18.80;99.90;;;;;;4988783;28;20430;-75
2023/06/11 05:35:46;;;;;;;14.30;11.30;;;18.80;99.90;;;;;;4987460;28;20434;-76
2023/06/11 05:38:12;;;;;;;15.82;11.50;;;19.00;99.90;;;;;;4997760;28;20426;-75
2023/06/11 05:40:38;;;;;;;13.33;11.80;;;;;;;;;;5003831;28;20432;-75
2023/06/11 05:43:04;;;;;;;13.83;11.60;;;19.10;99.90;;;;;;4970255;28;20434;-77
2023/06/11 05:45:31;;;;;;;11.60;10.35;;;19.10;99.90;;;;;;4998662;28;20420;-78
2023/06/11 05:47:57;;;;;;;13.43;11.60;;;19.60;99.90;;;;;;4993279;28;20460;-78
2023/06/11 05:50:23;;;;;;;12.50;11.20;;;19.40;99.90;;;;;;4998675;28;20467;-78
2023/06/11 05:52:49;;;;;;;14.73;11.10;;;19.60;99.90;;;;;;4993611;28;20450;-78
2023/06/11 05:55:14;;;;;;;13.83;11.57;;;19.30;99.90;;;;;;4993059;28;20505;-78
2023/06/11 05:57:40;;;;;;;13.20;11.40;;;19.50;99.90;;;;;;4998294;28;20507;-77
2023/06/11 06:00:09;;;;;;;12.40;11.05;;;19.80;99.90;;;;;;4976136;28;20433;-77
2023/06/11 06:02:35;;;;;;;15.45;11.18;;;19.60;99.90;;;;;;4997000;28;20418;-77
2023/06/11 06:05:01;;;;;;;12.95;11.25;;;19.70;99.90;;;;;;4993208;28;20873;-77
2023/06/11 06:07:26;;;;;;;12.63;10.80;;;19.70;99.90;;;;;;4977211;28;20869;-78
2023/06/11 06:09:52;;;;;;;14.00;10.87;;;19.60;99.90;;;;;;4961161;28;20464;-78
2023/06/11 06:12:18;;;;;;;12.07;10.77;;;19.90;99.90;;;;;;4967997;28;20440;-77
2023/06/11 06:14:43;;;;;;;12.30;10.77;;;19.80;99.90;;;;;;4993522;28;20500;-77
2023/06/11 06:17:10;;;;;;;12.67;10.70;;;;;;;;;;4992200;28;20945;-77
2023/06/11 06:19:35;;;;;;;12.20;10.75;;;20.40;99.90;;;;;;4959027;28;20897;-75
2023/06/11 06:22:01;;;;;;;12.93;10.50;;;;;;;;;;4975144;28;20508;-76
2023/06/11 06:24:28;;;;;;;12.68;10.88;;;;;;;;;;4992807;28;20432;-76
2023/06/11 06:26:56;;;;;;;11.98;10.77;;;20.70;99.90;;;;;;4994391;28;20800;-76
2023/06/11 06:29:23;;;;;;;11.63;10.43;;;20.70;99.90;;;;;;4985104;28;20430;-76
2023/06/11 06:31:50;;;;;;;11.82;10.43;;;20.90;99.90;;;;;;4999264;28;20431;-77
2023/06/11 06:34:16;;;;;;;11.75;10.55;;;20.90;99.90;;;;;;4994037;28;20462;-78
2023/06/11 06:36:41;;;;;;;19.40;10.95;;;20.80;99.90;;;;;;5004166;28;20467;-78
2023/06/11 06:39:07;;;;;;;12.43;10.55;;;21.00;99.90;;;;;;4994578;28;20426;-79
2023/06/11 06:41:33;;;;;;;13.13;10.33;;;21.20;99.90;;;;;;5010283;28;20414;-77
2023/06/11 06:43:59;;;;;;;12.20;10.20;;;21.20;99.90;;;;;;5000052;28;20430;-76
2023/06/11 06:46:25;;;;;;;11.50;9.18;;;21.50;99.90;;;;;;4977458;28;20429;-77
2023/06/11 06:48:51;;;;;;;10.95;9.60;;;21.50;99.90;;;;;;4992514;28;20919;-78
2023/06/11 06:51:20;;;;;;;12.95;9.68;;;21.60;99.90;;;;;;4976665;28;20477;-77
2023/06/11 06:53:47;;;;;;;12.65;9.82;;;22.50;99.90;;;;;;4991550;28;20423;-77
2023/06/11 06:56:13;;;;;;;11.57;9.50;;;21.70;99.90;;;;;;4993387;28;20426;-75
2023/06/11 06:58:39;;;;;;;10.77;9.27;;;21.90;99.90;;;;;;4994642;28;20803;-79
2023/06/11 07:01:05;;;;;;;11.03;9.50;;;22.00;99.90;;;;;;4976695;28;20431;-78
2023/06/11 07:03:33;;;;;;;11.57;9.30;;;22.10;99.90;;;;;;4991186;28;20426;-76
2023/06/11 07:06:00;;;;;;;12.70;9.40;;;22.10;99.90;;;;;;4998388;28;20412;-76
2023/06/11 07:08:26;;;;;;;11.55;9.18;;;22.30;99.90;;;;;;4987614;28;20711;-78
2023/06/11 07:10:54;;;;;;;12.68;9.23;;;22.40;99.90;;;;;;4988454;28;20492;-76
2023/06/11 07:13:21;;;;;;;10.95;9.18;;;22.50;99.90;;;;;;4988892;28;20832;-78
2023/06/11 07:15:47;;;;;;;11.70;8.50;;;22.50;99.90;;;;;;4972636;28;20491;-81
2023/06/11 07:18:13;;;;;;;10.63;9.10;;;22.80;99.90;;;;;;4990439;28;20422;-84
2023/06/11 07:20:39;;;;;;;9.90;8.53;;;22.70;99.90;;;;;;4975517;28;20424;-80
2023/06/11 07:23:05;;;;;;;11.97;8.60;;;22.90;99.90;;;;;;4986441;28;20988;-80
2023/06/11 07:25:31;;;;;;;14.35;9.48;;;22.90;99.90;;;;;;4956650;28;20412;-80
2023/06/11 07:27:59;;;;;;;10.90;9.02;;;23.10;99.90;;;;;;4984688;28;20419;-79
2023/06/11 07:30:26;;;;;;;11.80;9.05;;;22.10;99.90;;;;;;4975908;28;20433;-80
2023/06/11 07:32:55;;;;;;;12.43;9.40;;;23.30;99.90;;;;;;4977030;28;20868;-78
2023/06/11 07:35:21;;;;;;;10.57;8.93;;;23.00;99.90;;;;;;4999309;28;20477;-78
2023/06/11 07:37:47;;;;;;;10.40;8.73;;;23.20;99.90;;;;;;4960949;28;20422;-77
2023/06/11 07:40:15;;;;;;;10.07;9.02;;;23.70;99.90;;;;;;4978115;28;20793;-83
2023/06/11 07:42:44;;;;;;;14.00;9.55;;;23.60;99.90;;;;;;4977828;28;20626;-82
2023/06/11 07:45:14;;;;;;;11.10;9.50;;;23.70;99.90;;;;;;4988308;28;20426;-79
2023/06/11 07:47:41;;;;;;;11.15;8.63;;;23.70;99.90;;;;;;4980052;28;20426;-79
2023/06/11 07:50:08;;;;;;;13.20;9.13;;;23.90;99.90;;;;;;4995013;28;20422;-81
2023/06/11 07:52:33;;;;;;;10.63;8.80;;;23.90;99.90;;;;;;4988806;28;20420;-80
2023/06/11 07:54:59;;;;;;;10.83;9.00;;;24.00;99.90;;;;;;4975470;28;20517;-81
2023/06/11 07:57:25;;;;;;;10.20;9.00;;;24.10;99.90;;;;;;4994471;28;20503;-81
2023/06/11 07:59:52;;;;;;;10.15;8.85;;;24.10;99.90;;;;;;4971459;28;20440;-82
2023/06/11 08:02:18;;;;;;;12.37;9.27;;;24.10;99.90;;;;;;4991501;28;20460;-80
2023/06/11 08:04:43;;;;;;;11.30;9.07;;;24.20;99.90;;;;;;4959894;28;20448;-80
2023/06/11 08:07:10;;;;;;;10.43;8.80;;;24.20;99.90;;;;;;4979127;28;20442;-80
2023/06/11 08:09:36;;;;;;;9.30;8.40;;;24.40;99.90;;;;;;4974642;28;20780;-78
2023/06/11 08:12:07;;;;;;;10.68;9.02;;;24.60;99.90;;;;;;4991744;28;20434;-79
2023/06/11 08:14:33;;;;;;;10.70;8.43;;;24.50;99.90;;;;;;4974657;28;20465;-77
2023/06/11 08:16:59;;;;;;;11.13;8.90;;;24.90;99.90;;;;;;4975489;28;20537;-76
2023/06/11 08:19:25;;;;;;;14.15;9.05;;;24.50;99.90;;;;;;4988556;28;20505;-77
2023/06/11 08:21:51;;;;;;;12.57;8.60;;;24.80;99.90;;;;;;4977705;28;20506;-77
2023/06/11 08:24:18;;;;;;;12.52;8.82;;;25.00;99.90;;;;;;4994995;28;20421;-78
2023/06/11 08:26:44;;;;;;;9.48;8.48;;;26.00;99.90;;;;;;4968932;28;20509;-77
2023/06/11 08:29:10;;;;;;;9.67;8.57;;;25.10;99.90;;;;;;4973999;28;20471;-77
2023/06/11 08:31:36;;;;;;;11.05;8.23;;;25.60;99.90;;;;;;4974850;28;20515;-76
2023/06/11 08:34:02;;;;;;;9.95;8.20;;;25.20;99.90;;;;;;4974714;28;20428;-76
2023/06/11 08:36:27;;;;;;;10.70;8.27;;;26.00;99.90;;;;;;4976863;28;20434;-75
2023/06/11 08:38:53;;;;;;;12.03;8.37;;;25.70;99.90;;;;;;4994572;28;20454;-76
2023/06/11 08:41:20;;;;;;;9.13;8.23;;;26.10;99.90;;;;;;4992068;28;20438;-76
2023/06/11 08:43:46;;;;;;;10.98;8.90;;;26.20;99.90;;;;;;4993087;28;20430;-77
2023/06/11 08:46:16;;;;;;;9.18;8.27;;;26.10;99.90;;;;;;4993829;28;20445;-76
2023/06/11 08:48:43;;;;;;;9.15;8.10;;;26.10;99.90;;;;;;4992512;28;20783;-77
2023/06/11 08:51:10;;;;;;;9.63;7.82;;;26.40;99.90;;;;;;4972432;28;20428;-77
2023/06/11 08:53:37;;;;;;;10.05;8.25;;;26.80;99.90;;;;;;4996764;28;20421;-74
2023/06/11 08:56:04;;;;;;;9.85;8.52;;;26.90;99.90;;;;;;4995085;28;20497;-74
2023/06/11 08:58:36;;;;;;;12.27;8.13;;;26.70;99.90;;;;;;4988428;28;20414;-75
2023/06/11 09:01:09;;;;;;;8.90;7.47;;;26.70;99.90;;;;;;4976949;28;20992;-76
2023/06/11 09:03:35;;;;;;;9.38;7.68;;;27.00;99.90;;;;;;4968329;28;20418;-76
2023/06/11 09:06:01;;;;;;;10.43;8.00;;;27.00;99.90;;;;;;4968109;28;20502;-77
2023/06/11 09:08:27;;;;;;;8.98;7.93;;;27.10;99.90;;;;;;4985340;28;20937;-77
2023/06/11 09:10:53;;;;;;;9.23;8.07;;;26.70;99.90;;;;;;4991011;28;20426;-75
2023/06/11 09:13:23;;;;;;;9.60;7.63;;;26.90;99.90;;;;;;4978152;28;20457;-76
2023/06/11 09:15:52;;;;;;;8.90;7.78;;;26.90;99.90;;;;;;4959458;28;20429;-76
2023/06/11 09:18:28;;;;;;;9.88;7.70;;;27.30;99.90;;;;;;4973519;28;20768;-77
2023/06/11 09:20:57;;;;;;;9.23;7.05;;;27.50;99.90;;;;;;4986803;28;20459;-77
2023/06/11 09:23:31;;;;;;;10.27;7.60;;;27.50;99.90;;;;;;4984780;28;20424;-77
2023/06/11 09:25:59;;;;;;;8.30;7.18;;;27.70;99.90;;;;;;4985618;28;20425;-77
2023/06/11 09:28:36;;;;;;;9.48;7.28;;;27.90;99.90;;;;;;4992781;28;20949;-76
2023/06/11 09:31:04;;;;;;;8.05;7.22;;;28.40;99.90;;;;;;4980765;28;21013;-75
2023/06/11 09:33:31;;;;;;;8.68;7.13;;;27.70;99.90;;;;;;4993192;28;20521;-76
2023/06/11 09:35:58;;;;;;;9.73;7.47;;;28.30;99.90;;;;;;4990134;28;20780;-77
2023/06/11 09:38:24;;;;;;;9.33;7.37;;;28.60;99.90;;;;;;4990239;28;20420;-75
2023/06/11 09:40:51;;;;;;;9.00;7.10;;;28.30;99.90;;;;;;4971442;28;20434;-77
2023/06/11 09:43:21;;;;;;;8.00;7.17;;;26.00;99.90;;;;;;4992966;28;20425;-77
2023/06/11 09:45:52;;;;;;;7.97;6.97;;;28.40;99.90;;;;;;4991490;28;20426;-77
2023/06/11 09:48:20;;;;;;;9.98;7.07;;;28.30;99.90;;;;;;4971708;28;20422;-78
2023/06/11 09:50:49;;;;;;;8.80;6.95;;;28.10;99.90;;;;;;4994886;28;20473;-78
2023/06/11 09:53:15;;;;;;;11.20;6.80;;;28.40;99.90;;;;;;4980262;28;20418;-78
2023/06/11 09:55:41;;;;;;;7.47;6.68;;;28.40;99.80;;;;;;4989249;28;20861;-78
2023/06/11 09:58:08;;;;;;;8.23;6.60;;;27.90;99.50;;;;;;4959918;28;20462;-76
2023/06/11 10:00:37;;;;;;;7.72;6.32;;;28.60;99.70;;;;;;4977537;28;20440;-77
2023/06/11 10:03:04;;;;;;;9.07;6.28;;;28.20;98.70;;;;;;4987560;28;20457;-80
2023/06/11 10:05:29;;;;;;;7.20;6.50;;;28.70;98.90;;;;;;4976417;28;20760;-79
2023/06/11 10:08:33;;;;;;;7.75;6.30;;;29.00;98.70;;;;;;4990939;28;20945;-78
2023/06/11 10:11:02;;;;;;;9.07;6.40;;;29.00;97.80;;;;;;4990722;28;20493;-78
2023/06/11 10:13:31;;;;;;;12.10;5.90;;;28.70;98.20;;;;;;4978774;28;20942;-79
2023/06/11 10:16:02;;;;;;;7.27;5.93;;;28.80;97.20;;;;;;4989329;28;20437;-78
2023/06/11 10:18:31;;;;;;;7.03;5.93;;;28.80;97.30;;;;;;4978978;28;20478;-77
2023/06/11 10:21:02;;;;;;;8.65;6.38;;;29.00;97.60;;;;;;4977020;28;20436;-79
2023/06/11 10:23:40;;;;;;;8.60;6.40;;;29.60;97.50;;;;;;4988245;28;20414;-78
2023/06/11 10:26:07;;;;;;;8.30;6.63;;;29.70;97.40;;;;;;4997402;28;20431;-78
2023/06/11 10:28:48;;;;;;;10.43;7.47;;;29.70;97.60;;;;;;4996833;28;20463;-78
2023/06/11 10:31:36;;;;;;;10.27;7.70;;;29.60;96.00;;;;;;4994362;28;21017;-79
2023/06/11 10:34:05;;;;;;;8.93;6.70;;;29.90;95.70;;;;;;4991964;28;20458;-76
2023/06/11 10:36:36;;;;;;;7.90;5.70;;;29.70;96.70;;;;;;4988944;28;20460;-77
2023/06/11 10:39:10;;;;;;;7.32;5.75;;;29.70;96.60;;;;;;4976234;28;20837;-78
2023/06/11 10:41:41;;;;;;;8.55;6.20;;;29.50;96.10;;;;;;4987069;28;20422;-76
2023/06/11 10:44:10;;;;;;;7.40;5.80;;;30.40;96.70;;;;;;4994564;28;20790;-76
2023/06/11 10:46:51;;;;;;;8.63;5.97;;;29.70;96.10;;;;;;4990633;28;20856;-76
2023/06/11 10:49:20;;;;;;;8.75;6.50;;;30.00;96.40;;;;;;4973539;28;20434;-78
2023/06/11 10:51:47;;;;;;;7.97;6.60;;;29.40;96.20;;;;;;4978275;28;20441;-79
2023/06/11 10:54:26;;;;;;;6.85;6.15;;;28.60;95.30;;;;;;4981103;28;20465;-77
2023/06/11 10:56:53;;;;;;;7.40;5.85;;;29.50;96.40;;;;;;4979007;28;20937;-77
2023/06/11 10:59:20;;;;;;;8.40;6.32;;;30.20;96.50;;;;;;4988221;28;20481;-77
2023/06/11 11:01:46;;;;;;;8.63;6.10;;;29.80;95.30;;;;;;5006722;28;20899;-75
2023/06/11 11:04:12;;;;;;;7.05;5.93;;;29.90;95.20;;;;;;4956380;28;20461;-78
2023/06/11 11:06:39;;;;;;;8.50;6.35;;;29.80;95.40;;;;;;4959740;28;20416;-77
2023/06/11 11:09:05;;;;;;;6.50;5.53;;;29.60;94.80;;;;;;4999491;28;20762;-76
2023/06/11 11:11:32;;;;;;;9.43;5.90;;;29.70;95.00;;;;;;5013561;28;20423;-76
2023/06/11 11:14:03;;;;;;;7.37;5.97;;;29.50;94.50;;;;;;4977842;28;20536;-77
2023/06/11 11:16:29;;;;;;;8.32;6.32;;;29.80;94.60;;;;;;4986597;28;20475;-77
2023/06/11 11:18:55;;;;;;;8.07;6.35;;;29.50;94.70;;;;;;4991491;28;20823;-79
2023/06/11 11:21:28;;;;;;;7.30;5.82;;;30.00;94.60;;;;;;5000128;28;20540;-76
2023/06/11 11:23:54;;;;;;;6.60;5.53;;;30.60;94.00;;;;;;4973596;28;20426;-77
2023/06/11 11:26:20;;;;;;;8.48;5.72;;;30.30;93.50;;;;;;4989681;28;20460;-77
2023/06/11 11:28:46;;;;;;;8.80;5.60;;;30.40;93.30;;;;;;4973340;28;20422;-78
2023/06/11 11:31:16;;;;;;;7.85;5.80;;;30.80;92.90;;;;;;4998792;28;20428;-78
2023/06/11 11:33:45;;;;;;;11.43;6.07;;;30.20;93.10;;;;;;4980802;28;20426;-78
2023/06/11 11:36:11;;;;;;;8.93;5.80;;;30.20;93.40;;;;;;4974381;28;20505;-78
2023/06/11 11:38:38;;;;;;;6.70;5.78;;;30.60;93.20;;;;;;4989045;28;20902;-78
2023/06/11 11:41:11;;;;;;;9.60;5.88;;;30.60;92.60;;;;;;4995308;28;20587;-77
2023/06/11 11:43:40;;;;;;;7.18;6.05;;;31.00;92.60;;;;;;4994272;28;20861;-78
2023/06/11 11:46:20;;;;;;;9.50;5.87;;;30.30;91.20;;;;;;4989551;28;20535;-78
2023/06/11 11:48:46;;;;;;;9.05;6.10;;;30.10;92.30;;;;;;4985995;28;20434;-78
2023/06/11 11:51:17;;;;;;;7.55;5.70;;;29.90;92.10;;;;;;4976428;28;20430;-78
2023/06/11 11:53:43;;;;;;;7.70;5.80;;;29.70;91.70;;;;;;4994845;28;20430;-79
2023/06/11 11:56:09;;;;;;;8.20;5.68;;;29.80;92.40;;;;;;4969622;28;20899;-78
2023/06/11 11:58:40;;;;;;;6.95;5.40;;;29.60;91.90;;;;;;4957941;28;20490;-78
2023/06/11 12:01:10;;;;;;;7.55;5.90;;;30.60;90.80;;;;;;4986786;28;20430;-79
2023/06/11 12:03:39;;;;;;;7.95;5.20;;;30.80;91.00;;;;;;4993559;28;20424;-78
2023/06/11 12:06:07;;;;;;;10.77;5.60;;;30.70;90.20;;;;;;4990481;28;20466;-78
2023/06/11 12:08:33;;;;;;;8.50;5.50;;;30.60;89.60;;;;;;4990509;28;20877;-79
2023/06/11 12:11:01;;;;;;;7.23;5.23;;;30.60;89.70;;;;;;4998130;28;20424;-78
2023/06/11 12:13:27;;;;;;;7.85;5.32;;;30.80;88.80;;;;;;5002622;28;20731;-79
2023/06/11 12:15:53;;;;;;;8.20;5.20;;;30.90;88.20;;;;;;4998195;28;20497;-78
2023/06/11 12:18:19;;;;;;;7.35;5.38;;;31.30;88.70;;;;;;4986431;28;20454;-78
2023/06/11 12:20:45;;;;;;;6.60;5.33;;;31.70;88.30;;;;;;4975969;28;21090;-78
2023/06/11 12:23:11;;;;;;;12.07;5.53;;;32.10;85.80;;;;;;4978022;28;20422;-78
2023/06/11 12:25:36;;;;;;;8.80;5.20;;;31.90;85.70;;;;;;4990157;28;20409;-79
2023/06/11 12:28:03;;;;;;;6.32;5.43;;;30.60;85.60;;;;;;4993157;28;20941;-78
2023/06/11 12:30:33;;;;;;;7.45;5.28;;;30.00;86.80;;;;;;4991349;28;20426;-78
2023/06/11 12:32:59;;;;;;;5.93;5.18;;;30.10;86.80;;;;;;4988874;28;20922;-78
2023/06/11 12:35:27;;;;;;;12.23;5.60;;;30.70;86.90;;;;;;4991476;28;20516;-78
2023/06/11 12:37:52;;;;;;;7.57;5.35;;;30.60;86.10;;;;;;4988362;28;20512;-78
2023/06/11 12:40:18;;;;;;;8.40;5.35;;;30.60;85.80;;;;;;4985774;28;20959;-78
2023/06/11 12:42:44;;;;;;;6.93;5.38;;;30.70;84.80;;;;;;4998079;28;20418;-78
2023/06/11 12:45:10;;;;;;;9.18;5.55;;;30.80;84.50;;;;;;4987593;28;20762;-78
2023/06/11 12:47:37;;;;;;;7.40;5.30;;;30.60;84.10;;;;;;4991271;28;20469;-78
2023/06/11 12:50:03;;;;;;;6.50;5.18;;;30.20;84.10;;;;;;4975034;28;20414;-79